x

South Huron - 43nm East Of Oscoda, Mi (45008) Wave Buoy

2:50pm - Sun 2nd Aug 2015 All times are CDT. -5 hours from GMT.

  • Sig Wave height 2.6ft
  • Swell Direction
  • Peak Period 5s
  • Average Period 4s
  • Wind
    7mph, 9mph gusts
  • Sea Temp 67°f
  • Air Temp 63°f
  • Sea Pressure 1005.5mb
  • South Huron - 43nm East Of Oscoda, Mi
  • South Huron - 43nm East Of Oscoda, Mi

More Historic Weather Station data

Upgrade to MSW Pro to gain access to the past 30 days of data for over 8000 Wavebouys and Weather Stations around the globe.

Join Pro

Comparision Forecast

View Surf forecast
   
Sun 08/02 2:50pm 2.5ft 5s 4s 7 9 mph 1005.5mb 67f 63f
1:50pm 3ft 4s 4s 13 16 mph 1004mb 67f 71f
12:50pm 2.5ft 4s 4s 18 20 mph 1004.6mb 67f 71f
11:50am 2.5ft 4s 3s 20 22 mph 1005.3mb 67f 70f
10:50am 2ft 4s 3s 16 18 mph 1006.5mb 67f 71f
9:50am 2ft 4s 3s 13 16 mph 1007.5mb 67f 70f
8:50am 2ft 4s 3s 16 18 mph 1007.2mb 67f 69f
6:50am 2ft 4s 3s 16 18 mph 1009mb 67f 68f
5:50am 1.6ft 3s 3s 16 20 mph 1008.8mb 67f 68f
4:50am 1ft 3s 3s 16 20 mph 1008.9mb 67f 69f
3:50am 1ft 3s 3s 11 13 mph 1009mb 67f 69f
2:50am 0.7ft  -  3s 9 11 mph 1009.3mb 67f 69f
1:50am 1ft 3s 3s 7
mph
1009.6mb 67f 69f
12:50am 1ft 3s 3s 4 7 mph 1009.6mb 67f 69f
Sat 08/01 11:50pm 1ft 4s 3s 7
mph
1009.9mb 67f 69f
10:50pm 1.3ft 3s 3s 7
mph
1009.6mb 67f 69f
9:50pm 1ft 3s 3s 7 9 mph 1009.6mb 68f 69f
8:50pm 1ft 3s 3s 9 11 mph 1009.5mb 68f 69f
7:50pm 0.7ft  -  3s 11
mph
1009.3mb 68f 69f
6:50pm 0.7ft  -  3s 9 11 mph 1009.1mb 68f 69f
5:50pm 1ft 3s 3s 9 11 mph 1009.3mb 69f 69f
4:50pm 1ft 3s 3s 9
mph
1009.8mb 69f 69f
3:50pm 1ft 3s 3s 4
mph
1009.9mb 68f 69f
2:50pm 1ft 3s 3s 4 7 mph 1010.6mb 68f 70f
1:50pm 1.3ft 4s 3s 4 7 mph 1010.6mb 67f 69f
12:50pm 1.3ft 3s 3s 9
mph
1010.9mb 67f 68f
11:50am 1.3ft 4s 3s 9 11 mph 1011.1mb 67f 68f
10:50am 1.6ft 4s 3s 9 11 mph 1011.1mb 67f 67f
9:50am 1.6ft 4s 3s 11
mph
1010.9mb 66f 67f
8:50am 1.3ft 4s 4s 9 11 mph 1010.9mb 66f 68f
7:50am 1.6ft 4s 3s 9
mph
1010.9mb 66f 68f
6:50am 1.6ft 4s 3s 9 11 mph 1010.7mb 66f 68f
5:50am 1.6ft 4s 3s 13 16 mph 1010.7mb 66f 67f
4:50am 2ft 4s 3s 11 13 mph 1010.5mb 67f 67f
3:50am 2ft 4s 3s 11 13 mph 1010.3mb 67f 67f
2:50am 1.6ft 4s 3s 13 16 mph 1010.2mb 67f 67f
1:50am 2ft 4s 3s 9 11 mph 1010.2mb 67f 66f
12:50am 1ft 3s 3s 13
mph
1010.3mb 67f 67f
Fri 07/31 11:50pm 0.7ft  -  3s 7 9 mph 1010.3mb 66f 67f
10:50pm 1ft 3s 3s 9
mph
1010.2mb 66f 68f
9:50pm 1ft 3s 3s 7
mph
1009.9mb 66f 68f
8:50pm 1ft 3s 3s 4
mph
1009.5mb 67f 68f
7:50pm 1.3ft 4s 3s 4
mph
1009.1mb 67f 69f
6:50pm 1.3ft 3s 3s 9 11 mph 1008.7mb 67f 70f
5:50pm 1.6ft 4s 4s 16 22 mph 1008.1mb 67f 71f
4:50pm 2ft 5s 4s 9 11 mph 1007.8mb 67f 70f
3:50pm 2.5ft 4s 4s 7 9 mph 1008.3mb 67f 69f
2:50pm 2ft 4s 4s 16 18 mph 1008mb 67f 72f
1:50pm 2ft 4s 4s 9 11 mph 1008.5mb 67f 72f
12:50pm 2.5ft 4s 4s 13 18 mph 1008.7mb 67f 71f
11:50am 2.5ft 4s 4s 16 18 mph 1009.3mb 67f 71f
10:50am 2ft 4s 3s 16 18 mph 1009.8mb 67f 70f
9:50am 1.6ft 4s 3s 16 18 mph 1009.9mb 67f 70f
8:50am 1.6ft 3s 3s 13 16 mph 1010.3mb 67f 70f
7:50am 1ft 3s 3s 13 18 mph 1010.7mb 67f 70f
6:50am 1ft 3s 3s 13
mph
1010.7mb 67f 70f
5:50am 1ft 3s 3s 11 13 mph 1010.7mb 67f 69f
4:50am 1ft 2s 3s 11
mph
1010.9mb 67f 69f
3:50am 1ft 4s 4s 11 13 mph 1011.1mb 66f 68f
2:50am 1.3ft 4s 4s 9 11 mph 1011.4mb 66f 68f
1:50am 1.3ft 4s 4s 4
mph
1012mb 66f 67f
12:50am 1.6ft 5s 4s 2 4 mph 1012.3mb 66f 67f
Thu 07/30 11:50pm 1.6ft 5s 4s 2
mph
1012.4mb 66f 67f
10:50pm 2ft 5s 4s 2 4 mph 1012.3mb 67f 68f
9:50pm 2.5ft 6s 5s 2
mph
1012.4mb 67f 68f
8:50pm 2.5ft 5s 5s 4
mph
1012mb 67f 68f
7:50pm 1.6ft 4s 4s 7
mph
1011.5mb 67f 69f
6:50pm 1.3ft 4s 4s 4
mph
1010.9mb 67f 69f
5:50pm 1.6ft 4s 4s 9
mph
1010.9mb 67f 69f
4:50pm 2ft 5s 4s 9 11 mph 1010.6mb 67f 69f
3:50pm 2.5ft 4s 4s 18 29 mph 1010mb 67f 74f
2:50pm 2.5ft 5s 4s 18 20 mph 1009.7mb 67f 74f
1:50pm 2.5ft 4s 4s 16 18 mph 1010.2mb 68f 73f
12:50pm 2.5ft 4s 4s 18 20 mph 1010.5mb 67f 72f
11:50am 2.5ft 5s 4s 18 20 mph 1010.7mb 67f 71f
10:50am 3ft 5s 4s 16 18 mph 1010.8mb 67f 70f
9:50am 3.5ft 5s 4s 16 20 mph 1010.7mb 66f 69f
8:50am 2.5ft 4s 4s 18 20 mph 1010.6mb 66f 69f
7:50am 2.5ft 4s 3s 18 20 mph 1010.6mb 66f 70f
6:50am 2ft 4s 4s 16 18 mph 1010.4mb 66f 70f
5:50am 2ft 4s 4s 13
mph
1010.2mb 66f 69f
4:50am 1.6ft 4s 4s 11 13 mph 1009.9mb 66f 69f
3:50am 1.6ft 4s 4s 13 16 mph 1009.7mb 67f 70f
2:50am 2ft 4s 4s 11
mph
1009.6mb 67f 70f
1:50am 2ft 4s 4s 16
mph
1009.8mb 67f 71f
12:50am 2ft 4s 3s 16 18 mph 1009.8mb 67f 72f
Wed 07/29 11:50pm 2ft 4s 3s 13 16 mph 1009.8mb 68f 73f
10:50pm 2ft 4s 3s 13 16 mph 1009.7mb 68f 73f
9:50pm 2ft 3s 3s 18 22 mph 1009.4mb 69f 75f
8:50pm 1.3ft 3s 3s 16 18 mph 1009mb 69f 74f